Portada
METAR-TAF:

METAR-TAF

Aeropuertos :

Aeropuerto de Hihifo

Wallis, Francia

latitud: 13-14S, longitud: 176-10W, altitud: 23 m

METAR: falta

Hora: 20:33 (08:33 UTC)

Pronóstico

El informe se hizo hace 3 horas y 33 minutos, a las 05:00 UTC
Pronóstico válido del 15 a las 06 UTC al 16 a las 06 UTC
Viento 8 kt del este
Visibilidad 10 km o más
Nubes dispersas a una altura de 2000 ft
Temporalmente
del 15 a las 06 UTC al 15 a las 15 UTC
Visibilidad: 4000 m
Cielo nuboso a una altura de 1400 ft
Nubes dispersas a una altura de 2000 ft, Cumulus congestus.
chaparrones de lluvia
Probabilidad 40% :
Temporalmente
del 15 a las 06 UTC al 15 a las 12 UTC
Visibilidad: 2000 m
Cielo nuboso a una altura de 1200 ft
Escasas nubes a una altura de 2000 ft, Cumulonimbus.
chaparrones de lluvia

TAF: NLWW 150500Z 1506/1606 10008KT 9999 SCT020 TEMPO 1506/1515 4000 SHRA BKN014 SCT020TCU PROB40 TEMPO 1506/1512 2000 +SHRA BKN012 FEW020CB

Observaciones y pronósticos meteorológicos de más de 4000 aeropuertos (mensajes METAR y TAF).

Los puntos amarillos y rojos representan las estaciones disponibles.

Ponga el ratón en el punto deseado para ver el nombre de la estación.

Haga clic para ver las observaciones y los pronósticos meteorológicos.

Para cambiar el mapa : haga clic en los botones verdes con una cruz de color negro para hacer un zoom, en el botón verde con un guión para alejar o en las flechas verdes para mapas adyacentes.


METAR-TAF: